Time;durP1;ratioP1;P1;durP2;ratioP2;P2;SDS_P1;SDS_P2;PMS_P1;PMS_P2;Temp;Humidity;BMP_temperature;BMP_pressure;BME280_temperature;BME280_humidity;BME280_pressure;Samples;Min_cycle;Max_cycle;Signal;HPM_P1;HPM_P2
2022/05/08 00:00:14;;;;;;;14.68;9.27;;;;;;;30.70;61.13;100718.88;5041518;28;66604;-39
2022/05/08 00:02:44;;;;;;;13.73;8.45;;;;;;;30.78;60.52;100725.03;5038953;28;70007;-39
2022/05/08 00:05:15;;;;;;;16.80;8.45;;;;;;;30.73;61.29;100714.88;5040538;28;66269;-37
2022/05/08 00:07:46;;;;;;;15.60;7.95;;;;;;;30.70;61.16;100708.03;5041360;28;69297;-39
2022/05/08 00:10:16;;;;;;;13.13;7.30;;;;;;;30.91;61.10;100746.59;5039807;28;65406;-39
2022/05/08 00:12:46;;;;;;;10.30;7.00;;;;;;;30.97;61.29;100744.88;5040337;28;69289;-40
2022/05/08 00:15:16;;;;;;;14.95;7.00;;;;;;;30.97;61.18;100748.41;5041649;28;66594;-41
2022/05/08 00:17:47;;;;;;;10.57;7.32;;;;;;;31.01;61.40;100752.34;5030727;28;69660;-41
2022/05/08 00:20:19;;;;;;;10.00;7.43;;;;;;;30.99;61.30;100754.44;5031348;28;65714;-41
2022/05/08 00:22:49;;;;;;;10.63;7.60;;;;;;;30.99;61.69;100749.00;5022833;28;70192;-41
2022/05/08 00:25:20;;;;;;;12.02;6.97;;;;;;;31.08;61.63;100769.34;5027393;28;66891;-40
2022/05/08 00:27:50;;;;;;;10.97;6.97;;;;;;;31.02;61.79;100753.97;5037775;28;70030;-41
2022/05/08 00:30:21;;;;;;;12.32;6.22;;;;;;;31.08;61.88;100768.50;5038208;28;66278;-42
2022/05/08 00:32:51;;;;;;;13.40;6.80;;;;;;;30.93;61.61;100750.75;5039538;28;70197;-41
2022/05/08 00:35:21;;;;;;;10.32;6.07;;;;;;;30.86;62.55;100754.56;5056028;28;67312;-42
2022/05/08 00:37:51;;;;;;;13.80;6.50;;;;;;;30.91;64.11;100773.69;5056225;28;69967;-42
2022/05/08 00:40:21;;;;;;;10.02;6.03;;;;;;;30.87;65.22;100789.56;5038057;28;66217;-42
2022/05/08 00:42:54;;;;;;;10.23;5.20;;;;;;;30.91;64.72;100789.94;5038190;28;70336;-41
2022/05/08 00:45:25;;;;;;;7.93;5.70;;;;;;;30.93;64.57;100793.25;5040310;28;65319;-41
2022/05/08 00:47:56;;;;;;;12.38;5.47;;;;;;;30.97;64.39;100794.44;5035931;28;70150;-43
2022/05/08 00:50:27;;;;;;;8.70;5.32;;;;;;;30.98;64.21;100809.69;5031747;28;65379;-44
2022/05/08 00:52:57;;;;;;;11.23;5.55;;;;;;;31.01;63.90;100811.94;5033149;28;70512;-45
2022/05/08 00:55:28;;;;;;;6.63;4.70;;;;;;;30.67;63.71;100754.50;5034715;28;66623;-44
2022/05/08 00:58:00;;;;;;;10.73;5.45;;;;;;;31.03;63.80;100812.50;5033713;28;69562;-44
2022/05/08 01:00:30;;;;;;;8.05;5.13;;;;;;;31.04;63.98;100816.06;5025772;28;66007;-43
2022/05/08 01:03:01;;;;;;;8.15;5.30;;;;;;;31.02;63.98;100813.59;5031883;28;70452;-44
2022/05/08 01:05:31;;;;;;;5.70;4.65;;;;;;;31.02;64.29;100807.34;5019549;28;66156;-43
2022/05/08 01:08:02;;;;;;;5.20;4.80;;;;;;;31.09;63.75;100811.66;5033220;28;69568;-43
2022/05/08 01:10:32;;;;;;;5.07;4.68;;;;;;;31.10;63.68;100815.19;5032014;28;66135;-43
2022/05/08 01:13:03;;;;;;;7.20;4.57;;;;;;;31.08;63.93;100803.72;5033522;28;69768;-44
2022/05/08 01:15:42;;;;;;;5.10;4.60;;;;;;;31.05;64.04;100796.06;5027693;28;66269;-43
2022/05/08 01:18:14;;;;;;;6.35;4.75;;;;;;;31.10;64.39;100805.16;5032817;28;70266;-44
2022/05/08 01:20:46;;;;;;;4.72;4.35;;;;;;;31.13;64.24;100812.03;5039543;28;66465;-43
2022/05/08 01:23:23;;;;;;;8.20;5.40;;;;;;;31.05;64.63;100794.16;5038881;28;69679;-44
2022/05/08 01:25:55;;;;;;;5.97;4.85;;;;;;;31.16;64.42;100815.09;5038531;28;65330;-43
2022/05/08 01:28:26;;;;;;;5.88;5.38;;;;;;;31.16;64.10;100817.81;5022009;28;70379;-43
2022/05/08 01:30:56;;;;;;;6.90;5.57;;;;;;;31.18;64.66;100809.47;5038080;28;67503;-43
2022/05/08 01:33:27;;;;;;;6.15;5.25;;;;;;;31.24;64.54;100805.03;5031389;28;68954;-43
2022/05/08 01:35:57;;;;;;;6.60;5.57;;;;;;;31.14;64.55;100798.22;5032982;28;67657;-44
2022/05/08 01:38:28;;;;;;;5.80;5.30;;;;;;;31.28;65.61;100814.38;5029997;28;69939;-43
2022/05/08 01:41:03;;;;;;;6.57;6.07;;;;;;;31.29;65.51;100816.03;5020485;28;66631;-43
2022/05/08 01:43:37;;;;;;;7.97;6.25;;;;;;;31.34;65.37;100806.19;5030577;28;70541;-42
2022/05/08 01:46:09;;;;;;;8.20;5.53;;;;;;;31.34;65.23;100821.59;5036143;28;65533;-41
2022/05/08 01:48:39;;;;;;;;;;;;;;;31.08;66.44;100818.09;5036574;28;70259;-41
2022/05/08 01:51:12;;;;;;;7.32;5.30;;;;;;;31.34;65.07;100813.47;5039389;28;66930;-45
2022/05/08 01:53:46;;;;;;;6.40;5.75;;;;;;;31.34;64.75;100818.88;5039435;28;69420;-41
2022/05/08 01:56:16;;;;;;;5.22;4.72;;;;;;;31.41;64.14;100832.41;5039738;28;66279;-41
2022/05/08 01:58:48;;;;;;;6.28;5.68;;;;;;;31.40;64.38;100845.13;5039903;28;69380;-41
2022/05/08 02:01:18;;;;;;;17.13;5.35;;;;;;;31.42;64.30;100843.00;5042840;28;66477;-41
2022/05/08 02:03:49;;;;;;;5.57;4.90;;;;;;;31.45;64.07;100845.25;5037937;28;69477;-41
2022/05/08 02:06:19;;;;;;;5.40;4.90;;;;;;;31.44;63.63;100846.34;5023908;28;66543;-43
2022/05/08 02:08:49;;;;;;;6.10;5.10;;;;;;;31.47;63.75;100853.19;5022865;28;69812;-42
2022/05/08 02:11:20;;;;;;;6.13;4.80;;;;;;;31.43;64.23;100847.41;5023214;28;66254;-41
2022/05/08 02:13:50;;;;;;;5.43;4.93;;;;;;;31.48;63.89;100850.25;5029224;28;70175;-44
2022/05/08 02:16:20;;;;;;;5.40;4.88;;;;;;;31.45;63.56;100839.84;5033956;28;65983;-44
2022/05/08 02:18:51;;;;;;;5.63;4.82;;;;;;;31.43;63.94;100836.56;5022247;28;70208;-44
2022/05/08 02:21:22;;;;;;;5.65;4.70;;;;;;;31.51;63.76;100838.97;5024039;28;66133;-45
2022/05/08 02:23:52;;;;;;;9.38;5.55;;;;;;;31.52;63.84;100840.63;5024420;28;70023;-44
2022/05/08 02:26:22;;;;;;;5.15;4.68;;;;;;;31.34;63.27;100810.75;5022484;28;65720;-44
2022/05/08 02:28:52;;;;;;;5.38;4.70;;;;;;;31.53;63.88;100831.41;5021349;28;69952;-44
2022/05/08 02:31:22;;;;;;;5.63;5.05;;;;;;;31.57;63.53;100827.22;5023571;28;65717;-46
2022/05/08 02:33:53;;;;;;;5.93;5.30;;;;;;;31.50;63.14;100821.03;5022579;28;70418;-44
2022/05/08 02:36:24;;;;;;;8.30;4.97;;;;;;;31.58;63.37;100834.28;5021409;28;66534;-45
2022/05/08 02:38:54;;;;;;;6.10;5.05;;;;;;;31.60;63.09;100829.47;5030342;28;70367;-44
2022/05/08 02:41:25;;;;;;;5.80;5.30;;;;;;;31.62;63.00;100826.50;5043193;28;66722;-44
2022/05/08 02:43:55;;;;;;;5.93;5.28;;;;;;;31.65;63.05;100819.81;5043259;28;70199;-43
2022/05/08 02:46:25;;;;;;;5.65;4.93;;;;;;;31.60;63.09;100818.63;5043751;28;66617;-44
2022/05/08 02:48:55;;;;;;;5.82;5.30;;;;;;;31.57;63.04;100816.38;5042941;28;70665;-44
2022/05/08 02:51:25;;;;;;;6.47;5.20;;;;;;;31.69;63.22;100834.59;5043323;28;65637;-44
2022/05/08 02:53:55;;;;;;;5.90;5.40;;;;;;;31.75;63.23;100830.97;5041967;28;70260;-44
2022/05/08 02:59:15;;;;;;;7.82;6.00;;;;;;;31.78;64.15;100816.94;5040887;28;69322;-45
2022/05/08 03:01:45;;;;;;;6.95;6.35;;;;;;;31.83;64.30;100809.78;5033719;28;67222;-43
2022/05/08 03:04:18;;;;;;;9.90;5.85;;;;;;;31.69;63.99;100791.19;5038302;28;70377;-44
2022/05/08 03:06:48;;;;;;;10.00;6.20;;;;;;;31.90;64.06;100817.84;5041595;28;65735;-43
2022/05/08 03:09:19;;;;;;;6.68;5.82;;;;;;;31.90;64.21;100815.13;5037384;28;70168;-44
2022/05/08 03:11:49;;;;;;;6.30;5.63;;;;;;;31.94;63.56;100810.91;5042232;28;66681;-44
2022/05/08 03:14:20;;;;;;;6.53;5.93;;;;;;;31.95;63.97;100812.56;5040447;28;71091;-42
2022/05/08 03:16:50;;;;;;;9.00;5.78;;;;;;;31.94;63.94;100810.91;5038817;28;66463;-44
2022/05/08 03:19:21;;;;;;;9.18;5.97;;;;;;;31.98;63.72;100804.00;5021207;28;70089;-44
2022/05/08 03:21:51;;;;;;;7.32;6.57;;;;;;;32.00;63.51;100815.41;5020986;28;66133;-43
2022/05/08 03:24:21;;;;;;;10.77;6.75;;;;;;;32.00;63.00;100807.28;5020774;28;69412;-43
2022/05/08 03:26:51;;;;;;;12.82;6.60;;;;;;;31.99;62.79;100808.34;5027796;28;65717;-44
2022/05/08 03:29:22;;;;;;;6.30;5.68;;;;;;;32.02;62.50;100816.03;5041123;28;69804;-43
2022/05/08 03:31:52;;;;;;;11.57;6.97;;;;;;;32.02;62.88;100812.50;5042059;28;66191;-44
2022/05/08 03:34:22;;;;;;;12.63;6.50;;;;;;;32.03;63.33;100820.38;5042731;28;70264;-40
2022/05/08 03:36:52;;;;;;;58.03;12.00;;;;;;;32.02;62.62;100829.59;5034137;28;65808;-40
2022/05/08 03:39:23;;;;;;;29.60;10.20;;;;;;;31.92;62.48;100806.78;5032184;28;70055;-41
2022/05/08 03:41:53;;;;;;;16.75;9.98;;;;;;;31.97;63.60;100817.78;5029864;28;66448;-45
2022/05/08 03:44:24;;;;;;;25.20;10.10;;;;;;;32.01;64.91;100836.09;5040651;28;70935;-44
2022/05/08 03:46:55;;;;;;;18.88;9.93;;;;;;;32.03;65.49;100830.41;5041168;28;65833;-45
2022/05/08 03:49:25;;;;;;;22.25;10.90;;;;;;;32.03;65.96;100830.41;5042207;28;69515;-44
2022/05/08 03:51:55;;;;;;;17.60;10.90;;;;;;;32.02;66.31;100826.06;5041548;28;65662;-45
2022/05/08 03:54:26;;;;;;;17.85;13.60;;;;;;;32.03;67.74;100825.81;5022098;28;69121;-43
2022/05/08 03:56:56;;;;;;;24.48;16.10;;;;;;;32.08;67.52;100827.03;5029886;28;66429;-43
2022/05/08 03:59:26;;;;;;;24.02;15.00;;;;;;;32.01;68.50;100827.94;5021372;28;70167;-44
2022/05/08 04:01:57;;;;;;;24.55;19.20;;;;;;;32.00;68.81;100826.28;5021619;28;66238;-44
2022/05/08 04:04:27;;;;;;;34.40;22.65;;;;;;;31.76;69.49;100784.63;5021771;28;70261;-43
2022/05/08 04:06:57;;;;;;;20.58;18.33;;;;;;;31.88;68.08;100806.38;5019655;28;66650;-42
2022/05/08 04:09:28;;;;;;;18.50;13.02;;;;;;;31.79;67.09;100796.91;5021771;28;70495;-45
2022/05/08 04:11:58;;;;;;;11.43;10.25;;;;;;;31.78;67.22;100796.06;5021748;28;66166;-44
2022/05/08 04:14:28;;;;;;;10.88;9.98;;;;;;;31.63;67.30;100763.09;5020123;28;70357;-44
2022/05/08 04:16:59;;;;;;;14.02;10.90;;;;;;;31.77;67.75;100794.41;5030980;28;66308;-44
2022/05/08 04:19:30;;;;;;;15.95;14.30;;;;;;;31.77;67.32;100793.59;5032909;28;70522;-46
2022/05/08 04:24:51;;;;;;;15.32;11.38;;;;;;;31.69;67.63;100785.78;5020024;28;70090;-44
2022/05/08 04:27:24;;;;;;;11.82;9.68;;;;;;;31.66;67.77;100776.22;5026475;28;65811;-45
2022/05/08 04:29:54;;;;;;;8.85;8.15;;;;;;;31.75;67.89;100776.72;5031793;28;70110;-46
2022/05/08 04:32:26;;;;;;;16.33;10.43;;;;;;;31.74;67.04;100778.59;5036471;28;66293;-47
2022/05/08 04:35:00;;;;;;;9.50;8.60;;;;;;;31.72;67.25;100769.03;5018605;28;69633;-43
2022/05/08 04:37:31;;;;;;;11.70;9.43;;;;;;;31.74;67.17;100766.94;5022060;28;67359;-44
2022/05/08 04:40:02;;;;;;;15.10;11.25;;;;;;;31.63;67.64;100751.44;5039596;28;69478;-48
2022/05/08 04:42:33;;;;;;;11.48;10.35;;;;;;;31.80;67.88;100760.59;5040882;28;65485;-45
2022/05/08 04:45:04;;;;;;;11.50;9.93;;;;;;;31.94;67.26;100758.56;5032767;28;69204;-44
2022/05/08 04:47:34;;;;;;;10.43;8.32;;;;;;;32.05;66.49;100746.91;5020152;28;65809;-44
2022/05/08 04:50:05;;;;;;;13.35;8.68;;;;;;;32.22;65.84;100744.34;5039490;28;69341;-44
2022/05/08 04:52:36;;;;;;;8.55;7.80;;;;;;;32.33;65.27;100738.13;5032635;28;65938;-44
2022/05/08 04:55:06;;;;;;;9.82;7.35;;;;;;;32.38;65.08;100723.84;5039846;28;69596;-44
2022/05/08 04:57:36;;;;;;;8.85;7.95;;;;;;;32.45;64.67;100711.81;5039999;28;65685;-44
2022/05/08 05:00:07;;;;;;;7.07;6.43;;;;;;;32.62;64.49;100725.53;5034301;28;69448;-44
2022/05/08 05:02:37;;;;;;;7.35;6.53;;;;;;;32.58;64.20;100705.34;5033881;28;64539;-44
2022/05/08 05:05:08;;;;;;;8.40;7.82;;;;;;;32.73;63.82;100713.03;5032032;28;69184;-45
2022/05/08 05:07:42;;;;;;;16.80;11.32;;;;;;;32.80;63.70;100705.59;5041012;28;66030;-45
2022/05/08 05:10:13;;;;;;;13.40;8.93;;;;;;;32.80;63.49;100699.34;5040663;28;70557;-45
2022/05/08 05:12:43;;;;;;;12.93;8.02;;;;;;;32.79;63.81;100698.50;5031188;28;66053;-47
2022/05/08 05:15:14;;;;;;;12.55;8.32;;;;;;;32.47;64.04;100649.97;5011704;28;69490;-47
2022/05/08 05:17:44;;;;;;;6.70;6.20;;;;;;;32.78;64.77;100701.44;5030056;28;66948;-46
2022/05/08 05:20:15;;;;;;;6.13;5.53;;;;;;;32.60;63.66;100688.84;5030551;28;70664;-45
2022/05/08 05:22:45;;;;;;;5.60;5.10;;;;;;;32.52;62.20;100683.75;5026464;28;66758;-46
2022/05/08 05:25:16;;;;;;;8.15;5.70;;;;;;;32.37;61.72;100689.59;5031288;28;70384;-44
2022/05/08 05:27:46;;;;;;;10.45;5.63;;;;;;;32.25;61.81;100676.03;5025420;28;65693;-44
2022/05/08 05:30:16;;;;;;;8.02;5.40;;;;;;;32.18;60.62;100678.03;5025318;28;69426;-44
2022/05/08 05:32:47;;;;;;;7.85;5.00;;;;;;;32.04;59.74;100682.88;5024166;28;65632;-45
2022/05/08 05:35:17;;;;;;;6.57;4.38;;;;;;;32.04;59.00;100686.41;5032985;28;69453;-46
2022/05/08 05:37:47;;;;;;;10.18;4.20;;;;;;;31.97;58.38;100691.09;5026440;28;66252;-45
2022/05/08 05:40:18;;;;;;;3.97;3.33;;;;;;;31.95;57.46;100684.25;5031278;28;70111;-46
2022/05/08 05:42:48;;;;;;;3.78;3.47;;;;;;;31.85;56.96;100679.38;5029305;28;66336;-46
2022/05/08 05:45:18;;;;;;;3.25;3.05;;;;;;;31.74;55.98;100644.91;5022128;28;70416;-44
2022/05/08 05:47:55;;;;;;;4.18;2.75;;;;;;;31.79;55.91;100672.16;5025697;28;66295;-45
2022/05/08 05:50:26;;;;;;;4.70;2.53;;;;;;;31.76;54.86;100668.03;5030935;28;70208;-43
2022/05/08 05:52:56;;;;;;;3.88;2.60;;;;;;;31.65;54.45;100657.13;5026119;28;66441;-44
2022/05/08 05:55:27;;;;;;;8.73;2.83;;;;;;;31.66;54.89;100675.88;5016245;28;69827;-43
2022/05/08 05:57:57;;;;;;;2.40;2.20;;;;;;;31.58;54.51;100666.19;5025214;28;64485;-44
2022/05/08 06:00:27;;;;;;;3.58;2.10;;;;;;;31.59;54.59;100662.44;5034003;28;68933;-44
2022/05/08 06:02:58;;;;;;;10.18;2.58;;;;;;;31.56;53.69;100667.47;5029091;28;65748;-43
2022/05/08 06:05:28;;;;;;;4.45;1.83;;;;;;;31.42;53.25;100644.31;5026854;28;70051;-45
2022/05/08 06:07:58;;;;;;;4.22;1.77;;;;;;;31.47;52.81;100660.72;5023570;28;66051;-43
2022/05/08 06:10:29;;;;;;;4.78;1.45;;;;;;;31.42;52.30;100658.69;5024658;28;70286;-43
2022/05/08 06:12:59;;;;;;;1.58;1.30;;;;;;;31.40;51.70;100652.69;5024597;28;65657;-44
2022/05/08 06:15:29;;;;;;;1.48;1.38;;;;;;;31.28;51.50;100638.22;5034485;28;70396;-44
2022/05/08 06:18:00;;;;;;;2.08;1.30;;;;;;;31.36;50.98;100651.47;5024760;28;66797;-44
2022/05/08 06:20:32;;;;;;;1.55;1.42;;;;;;;31.27;50.41;100644.69;5033734;28;69098;-43
2022/05/08 06:23:02;;;;;;;4.40;1.40;;;;;;;31.28;50.40;100643.63;5028010;28;65126;-44
2022/05/08 06:25:33;;;;;;;1.35;1.25;;;;;;;31.29;49.95;100645.31;5024972;28;70186;-44
2022/05/08 06:28:03;;;;;;;2.20;1.33;;;;;;;31.25;49.95;100627.81;5021597;28;66271;-44
2022/05/08 06:30:33;;;;;;;1.40;1.30;;;;;;;31.27;49.66;100623.00;5020145;28;70068;-46
2022/05/08 06:33:03;;;;;;;1.20;1.05;;;;;;;31.25;49.17;100622.41;5020194;28;66449;-45
2022/05/08 06:35:42;;;;;;;1.20;1.10;;;;;;;30.97;48.66;100572.34;5018728;28;70438;-45
2022/05/08 06:38:12;;;;;;;1.60;1.05;;;;;;;31.24;48.76;100609.94;5019108;28;66153;-43
2022/05/08 06:40:45;;;;;;;1.20;1.10;;;;;;;31.23;48.79;100600.97;5038020;28;69913;-42
2022/05/08 06:43:15;;;;;;;1.30;1.20;;;;;;;31.10;48.40;100579.47;5038508;28;66166;-43
2022/05/08 06:45:46;;;;;;;3.47;1.20;;;;;;;31.23;48.59;100597.41;5039163;28;70315;-43
2022/05/08 06:48:16;;;;;;;2.22;1.55;;;;;;;31.10;48.13;100574.88;5040688;28;66503;-43
2022/05/08 06:50:46;;;;;;;1.30;1.00;;;;;;;31.21;48.11;100586.00;5043253;28;69459;-44
2022/05/08 06:53:16;;;;;;;1.30;1.20;;;;;;;31.16;47.45;100571.25;5022982;28;66245;-45
2022/05/08 06:55:47;;;;;;;4.03;1.55;;;;;;;31.20;47.49;100560.75;5022172;28;69434;-42
2022/05/08 06:58:17;;;;;;;1.30;1.20;;;;;;;31.11;47.71;100552.13;5023360;28;66446;-43
2022/05/08 07:03:36;;;;;;;1.73;1.38;;;;;;;31.02;46.73;100531.84;5023302;28;66576;-44
2022/05/08 07:06:07;;;;;;;1.40;1.08;;;;;;;31.20;46.85;100562.66;5022570;28;69505;-44
2022/05/08 07:08:37;;;;;;;1.20;1.10;;;;;;;31.23;46.68;100564.91;5020867;28;66331;-43
2022/05/08 07:11:08;;;;;;;1.25;0.85;;;;;;;31.16;46.69;100549.56;5022956;28;70309;-44
2022/05/08 07:13:38;;;;;;;0.70;0.70;;;;;;;31.26;46.51;100559.00;5022626;28;65878;-42
2022/05/08 07:16:08;;;;;;;0.93;0.75;;;;;;;31.18;45.84;100552.06;5020957;28;70316;-42
2022/05/08 07:18:38;;;;;;;1.00;0.80;;;;;;;31.26;45.94;100564.44;5022944;28;66310;-43
2022/05/08 07:21:08;;;;;;;1.13;0.50;;;;;;;31.24;45.84;100561.16;5021098;28;70187;-44
2022/05/08 07:23:38;;;;;;;0.70;0.60;;;;;;;31.21;45.14;100557.03;5020449;28;66498;-46
2022/05/08 07:26:09;;;;;;;0.93;0.80;;;;;;;31.22;45.77;100557.84;5005241;28;68805;-44
2022/05/08 07:28:39;;;;;;;1.95;0.93;;;;;;;31.21;45.00;100561.63;5021783;28;66334;-44
2022/05/08 07:31:09;;;;;;;1.63;0.90;;;;;;;31.22;45.07;100557.84;5021885;28;70252;-43
2022/05/08 07:33:40;;;;;;;0.77;0.60;;;;;;;31.20;44.98;100551.81;5033219;28;66432;-44
2022/05/08 07:36:13;;;;;;;1.00;0.70;;;;;;;31.13;44.82;100541.91;5028507;28;69902;-45
2022/05/08 07:38:45;;;;;;;0.63;0.55;;;;;;;31.20;44.77;100549.94;5039743;28;65733;-44
2022/05/08 07:41:16;;;;;;;3.70;0.63;;;;;;;30.84;44.60;100489.41;5033386;28;70364;-44
2022/05/08 07:43:46;;;;;;;3.83;0.40;;;;;;;31.06;44.55;100527.63;5034497;28;65997;-43
2022/05/08 07:46:16;;;;;;;0.85;0.60;;;;;;;31.20;44.11;100540.97;5035366;28;70308;-44
2022/05/08 07:48:46;;;;;;;0.85;0.60;;;;;;;31.20;44.32;100538.25;5031024;28;66204;-45
2022/05/08 07:51:17;;;;;;;1.63;0.50;;;;;;;31.20;44.29;100532.84;5031265;28;69217;-45
2022/05/08 07:53:47;;;;;;;0.47;0.35;;;;;;;31.15;44.03;100518.13;5036548;28;66519;-44
2022/05/08 07:56:17;;;;;;;0.50;0.50;;;;;;;31.16;43.86;100521.66;5024049;28;69616;-46
2022/05/08 07:58:47;;;;;;;0.70;0.63;;;;;;;31.14;43.75;100507.50;5020613;28;65436;-45
2022/05/08 08:01:17;;;;;;;0.80;0.80;;;;;;;31.21;43.37;100504.72;5070583;28;69645;-45
2022/05/08 08:04:02;;;;;;;0.70;0.70;;;;;;;31.20;43.69;100505.75;5022723;28;65359;-44
2022/05/08 08:06:32;;;;;;;1.58;1.10;;;;;;;31.20;43.49;100495.72;5023561;28;69704;-45
2022/05/08 08:09:04;;;;;;;2.08;0.90;;;;;;;31.21;43.25;100491.16;5036469;28;66459;-47
2022/05/08 08:11:35;;;;;;;1.08;1.00;;;;;;;31.04;43.25;100459.31;5022636;28;69363;-46
2022/05/08 08:14:06;;;;;;;0.90;0.80;;;;;;;31.22;43.47;100474.66;5028951;28;67024;-45
2022/05/08 08:16:55;;;;;;;1.10;0.77;;;;;;;31.20;43.30;100474.06;5021425;28;69252;-45
2022/05/08 08:19:26;;;;;;;1.27;1.00;;;;;;;31.20;43.47;100471.34;5026227;28;66038;-45
2022/05/08 08:22:00;;;;;;;2.10;1.65;;;;;;;31.22;43.18;100460.28;5026924;28;69575;-45
2022/05/08 08:24:30;;;;;;;1.13;0.93;;;;;;;31.20;43.16;100467.81;5031061;28;65946;-43
2022/05/08 08:27:01;;;;;;;1.10;1.00;;;;;;;31.26;43.09;100467.72;5020785;28;69300;-43
2022/05/08 08:29:31;;;;;;;1.02;0.88;;;;;;;31.24;42.62;100458.19;5026952;28;66659;-46
2022/05/08 08:32:01;;;;;;;4.78;1.30;;;;;;;31.31;46.79;100469.72;5018649;28;70097;-44
2022/05/08 08:34:33;;;;;;;2.60;1.08;;;;;;;31.32;46.51;100465.97;5026467;28;65548;-45
2022/05/08 08:37:03;;;;;;;4.78;1.25;;;;;;;31.25;45.84;100460.66;5024648;28;69208;-44
2022/05/08 08:39:33;;;;;;;1.85;1.08;;;;;;;31.35;45.04;100471.75;5033583;28;65854;-45
2022/05/08 08:42:18;;;;;;;0.80;0.77;;;;;;;31.22;44.81;100446.75;5034836;28;70047;-45
2022/05/08 08:48:06;;;;;;;1.23;1.13;;;;;;;31.26;44.23;100477.72;5023269;28;69145;-45
2022/05/08 08:50:36;;;;;;;1.20;1.10;;;;;;;31.30;44.01;100462.66;5029989;28;66244;-44
2022/05/08 08:53:07;;;;;;;1.10;0.98;;;;;;;31.36;43.44;100483.44;5015665;28;69703;-44
2022/05/08 08:55:37;;;;;;;1.45;1.10;;;;;;;31.15;43.57;100449.56;5032313;28;66126;-46
2022/05/08 08:58:07;;;;;;;1.20;1.10;;;;;;;31.33;43.48;100481.16;5038414;28;70196;-44
2022/05/08 09:00:38;;;;;;;1.90;1.17;;;;;;;31.35;43.54;100487.19;5029007;28;66397;-45
2022/05/08 09:03:08;;;;;;;1.10;1.00;;;;;;;31.36;43.38;100489.69;5028506;28;70913;-45
2022/05/08 09:05:38;;;;;;;0.98;0.80;;;;;;;31.39;43.54;100500.06;5022649;28;66281;-44
2022/05/08 09:08:09;;;;;;;1.63;1.00;;;;;;;31.39;43.79;100496.53;5023823;28;70139;-44
2022/05/08 09:10:44;;;;;;;1.23;0.70;;;;;;;31.09;43.46;100445.91;5030978;28;65680;-45
2022/05/08 09:13:14;;;;;;;1.45;0.82;;;;;;;31.39;43.30;100489.22;5023416;28;69537;-44
2022/05/08 09:15:46;;;;;;;1.35;1.02;;;;;;;31.39;43.56;100488.38;5023484;28;66681;-46
2022/05/08 09:18:16;;;;;;;1.23;1.13;;;;;;;31.32;43.42;100476.81;5029941;28;69778;-44
2022/05/08 09:20:48;;;;;;;2.45;1.40;;;;;;;31.45;47.10;100492.88;5051746;28;65373;-46
2022/05/08 09:23:22;;;;;;;7.10;2.40;;;;;;;31.38;52.90;100451.50;5037043;28;69947;-47
2022/05/08 09:26:08;;;;;;;3.50;3.20;;;;;;;31.82;55.51;100481.84;5030940;28;65767;-45
2022/05/08 09:28:45;;;;;;;6.17;3.23;;;;;;;31.98;56.67;100483.00;5022323;28;69706;-46
2022/05/08 09:31:17;;;;;;;6.47;3.08;;;;;;;32.08;57.75;100479.72;5021729;28;65652;-44
2022/05/08 09:33:51;;;;;;;4.10;2.65;;;;;;;32.06;58.20;100450.09;5021581;28;70141;-43
2022/05/08 09:36:27;;;;;;;3.05;2.78;;;;;;;32.34;58.86;100491.94;5025255;28;66799;-45
2022/05/08 09:38:58;;;;;;;7.80;2.97;;;;;;;32.42;59.53;100486.94;5027415;28;70064;-47
2022/05/08 09:41:30;;;;;;;3.28;3.05;;;;;;;32.12;59.40;100421.19;5040969;28;67567;-43
2022/05/08 09:44:13;;;;;;;5.00;3.03;;;;;;;32.55;60.04;100491.31;5032158;28;70661;-45
2022/05/08 09:46:49;;;;;;;2.80;2.60;;;;;;;32.64;60.41;100491.75;5025437;28;65715;-47
2022/05/08 09:49:21;;;;;;;6.45;2.33;;;;;;;32.71;60.67;100490.56;5021817;28;70167;-48
2022/05/08 09:51:53;;;;;;;7.03;2.80;;;;;;;32.76;61.28;100495.25;5036204;28;66149;-46
2022/05/08 09:54:26;;;;;;;4.28;2.85;;;;;;;32.88;60.89;100496.03;5039428;28;69201;-48
2022/05/08 09:56:59;;;;;;;5.88;2.50;;;;;;;32.92;60.49;100497.19;5022462;28;66438;-46
2022/05/08 09:59:30;;;;;;;6.30;5.70;;;;;;;32.97;59.82;100496.47;5040333;28;70182;-43
2022/05/08 10:02:00;;;;;;;18.20;6.53;;;;;;;32.82;58.35;100461.69;5026305;28;66450;-45
2022/05/08 10:04:35;;;;;;;6.93;6.28;;;;;;;33.22;58.12;100501.56;5027738;28;69106;-45
2022/05/08 10:07:06;;;;;;;10.65;6.18;;;;;;;33.29;57.73;100502.25;5030038;28;66167;-45
2022/05/08 10:15:35;;;;;;;6.05;5.40;;;;;;;33.50;57.04;100516.16;5038635;28;69735;-44
2022/05/08 10:18:28;;;;;;;7.00;6.38;;;;;;;33.44;57.16;100520.69;5038435;28;66946;-45
2022/05/08 10:21:05;;;;;;;6.28;5.30;;;;;;;33.55;56.37;100505.41;5039537;28;70167;-45
2022/05/08 10:23:45;;;;;;;11.88;7.72;;;;;;;33.59;56.69;100507.34;5041014;28;65458;-46
2022/05/08 10:26:22;;;;;;;20.73;8.20;;;;;;;33.27;57.09;100450.00;5042802;28;69602;-45
2022/05/08 10:29:12;;;;;;;9.77;7.13;;;;;;;33.64;56.80;100509.34;5042381;28;66512;-46
2022/05/08 10:31:49;;;;;;;9.07;6.65;;;;;;;33.68;56.19;100505.03;5039715;28;70035;-45
2022/05/08 10:34:34;;;;;;;14.73;6.53;;;;;;;33.29;56.92;100452.47;5043675;28;65525;-45
2022/05/08 10:37:13;;;;;;;9.30;5.60;;;;;;;33.71;56.29;100512.72;5043365;28;69526;-45
2022/05/08 10:39:47;;;;;;;8.18;5.68;;;;;;;33.75;56.30;100511.16;5042456;28;65256;-45
2022/05/08 10:42:33;;;;;;;5.65;5.15;;;;;;;33.74;56.83;100514.97;5043240;28;69583;-45
2022/05/08 10:45:07;;;;;;;8.90;5.28;;;;;;;33.73;56.35;100520.63;5028707;28;65982;-45
2022/05/08 10:47:37;;;;;;;6.60;5.20;;;;;;;33.72;56.77;100521.72;5022803;28;69458;-45
2022/05/08 10:50:13;;;;;;;7.38;5.47;;;;;;;33.73;56.64;100517.91;5021324;28;64974;-44
2022/05/08 10:52:47;;;;;;;7.57;5.85;;;;;;;33.76;56.80;100517.41;5025567;28;70319;-45
2022/05/08 10:55:23;;;;;;;7.45;5.55;;;;;;;33.66;56.71;100507.22;5039915;28;66577;-44
2022/05/08 10:57:54;;;;;;;5.65;4.97;;;;;;;33.76;56.92;100517.41;5025914;28;70022;-43
2022/05/08 11:00:29;;;;;;;6.67;4.97;;;;;;;33.74;57.33;100525.84;5032437;28;65896;-46
2022/05/08 11:03:01;;;;;;;7.03;5.72;;;;;;;33.75;57.01;100527.47;5028427;28;70358;-45
2022/05/08 11:05:34;;;;;;;8.82;4.70;;;;;;;33.28;56.76;100446.19;5032680;28;66293;-45
2022/05/08 11:08:07;;;;;;;7.22;3.90;;;;;;;33.69;56.95;100505.91;5024603;28;70341;-45
2022/05/08 11:10:39;;;;;;;6.13;3.25;;;;;;;33.34;56.74;100452.53;5035706;28;66807;-43
2022/05/08 11:13:15;;;;;;;5.65;3.78;;;;;;;33.13;58.18;100462.28;5023596;28;69740;-44
2022/05/08 11:15:49;;;;;;;6.72;4.03;;;;;;;33.38;58.94;100533.38;5040737;28;66742;-46
2022/05/08 11:18:24;;;;;;;8.05;4.82;;;;;;;33.24;59.68;100526.59;5031445;28;69843;-43
2022/05/08 11:21:00;;;;;;;10.07;5.15;;;;;;;33.00;59.83;100506.06;5029901;28;66266;-42
2022/05/08 11:23:31;;;;;;;19.05;5.13;;;;;;;33.03;60.06;100519.97;5027039;28;70335;-45
2022/05/08 11:26:09;;;;;;;4.88;4.43;;;;;;;33.03;59.84;100535.44;5028545;28;66204;-45
2022/05/08 11:28:51;;;;;;;7.28;4.50;;;;;;;32.45;60.26;100474.78;5027661;28;70372;-45
2022/05/08 11:31:24;;;;;;;11.57;5.35;;;;;;;32.87;60.58;100553.31;5030641;28;65709;-46
2022/05/08 11:36:44;;;;;;;8.30;4.03;;;;;;;33.03;60.04;100565.34;5022838;28;65667;-48
2022/05/08 11:39:19;;;;;;;7.68;4.55;;;;;;;33.12;60.14;100572.03;5029226;28;69376;-47
2022/05/08 11:41:52;;;;;;;7.22;4.93;;;;;;;33.17;59.46;100569.41;5027278;28;65607;-45
2022/05/08 11:44:27;;;;;;;5.72;5.22;;;;;;;33.15;59.45;100571.53;5032148;28;70110;-45
2022/05/08 11:46:57;;;;;;;11.52;5.97;;;;;;;33.20;59.48;100574.34;5038327;28;65518;-46
2022/05/08 11:49:30;;;;;;;6.00;4.70;;;;;;;33.26;59.65;100588.88;5018800;28;69368;-46
2022/05/08 11:52:06;;;;;;;15.20;4.53;;;;;;;33.10;60.66;100593.22;5046701;28;65575;-45
2022/05/08 11:54:38;;;;;;;7.88;3.88;;;;;;;32.90;61.16;100585.44;5023964;28;70147;-47
2022/05/08 11:57:18;;;;;;;6.85;4.65;;;;;;;32.38;61.35;100512.94;5037904;28;66229;-45
2022/05/08 12:00:12;;;;;;;4.45;4.05;;;;;;;32.77;62.01;100583.84;5032289;28;70985;-46
2022/05/08 12:02:50;;;;;;;8.52;4.68;;;;;;;32.85;61.96;100618.78;5026681;28;66331;-45